createdAt,value
2018-12-06T00:00:25.137Z,0
2018-12-06T00:01:35.066Z,0
2018-12-06T00:02:44.856Z,0
2018-12-06T00:03:54.799Z,0
2018-12-06T00:05:04.727Z,0
2018-12-06T00:06:14.666Z,0
2018-12-06T00:07:24.606Z,0
2018-12-06T00:08:34.583Z,0
2018-12-06T00:09:44.516Z,0
2018-12-06T00:10:54.451Z,0
2018-12-06T00:12:04.382Z,0
2018-12-06T00:13:14.312Z,0
2018-12-06T00:14:24.291Z,0
2018-12-06T00:15:34.228Z,0
2018-12-06T00:16:44.160Z,0
2018-12-06T00:17:54.088Z,0
2018-12-06T00:19:04.019Z,0
2018-12-06T00:20:13.949Z,0
2018-12-06T00:21:23.874Z,0
2018-12-06T00:22:33.837Z,0
2018-12-06T00:23:43.766Z,0
2018-12-06T00:24:53.709Z,0
2018-12-06T00:26:03.684Z,0
2018-12-06T00:27:13.611Z,0
2018-12-06T00:28:23.540Z,0
2018-12-06T00:29:33.472Z,0
2018-12-06T00:30:43.404Z,0
2018-12-06T00:31:53.430Z,0
2018-12-06T00:33:03.365Z,0
2018-12-06T00:34:13.301Z,0
2018-12-06T00:35:23.228Z,0
2018-12-06T00:36:33.162Z,0
2018-12-06T00:37:43.189Z,0
2018-12-06T00:38:53.120Z,0
2018-12-06T00:40:03.055Z,0
2018-12-06T00:41:12.982Z,0
2018-12-06T00:42:22.919Z,0
2018-12-06T00:43:32.951Z,0
2018-12-06T00:44:42.880Z,0
2018-12-06T00:45:52.840Z,0
2018-12-06T00:47:02.765Z,0
2018-12-06T00:48:12.701Z,0
2018-12-06T00:49:22.731Z,0
2018-12-06T00:50:32.659Z,0
2018-12-06T00:51:42.593Z,0
2018-12-06T00:52:52.534Z,0
2018-12-06T00:54:02.466Z,0
2018-12-06T00:55:12.500Z,0
2018-12-06T00:56:22.430Z,0
2018-12-06T00:57:32.363Z,0
2018-12-06T00:58:42.292Z,0
2018-12-06T00:59:52.221Z,0
2018-12-06T01:01:02.250Z,0
2018-12-06T01:02:12.233Z,0
2018-12-06T01:03:22.169Z,0
2018-12-06T01:04:32.104Z,0
2018-12-06T01:05:42.033Z,0
2018-12-06T01:06:52.009Z,0
2018-12-06T01:08:01.945Z,0
2018-12-06T01:09:11.622Z,0
2018-12-06T01:10:21.547Z,0
2018-12-06T01:11:31.477Z,0
2018-12-06T01:12:41.455Z,0
2018-12-06T01:13:51.420Z,0
2018-12-06T01:15:01.346Z,0
2018-12-06T01:16:11.281Z,0
2018-12-06T01:17:21.213Z,0
2018-12-06T01:18:31.257Z,0
2018-12-06T01:19:41.191Z,0
2018-12-06T01:20:51.116Z,0
2018-12-06T01:22:01.044Z,0
2018-12-06T01:23:10.970Z,0
2018-12-06T01:24:20.959Z,0
2018-12-06T01:25:30.888Z,0
2018-12-06T01:26:40.812Z,0
2018-12-06T01:27:50.736Z,0
2018-12-06T01:29:00.718Z,0
2018-12-06T01:30:10.746Z,0
2018-12-06T01:31:20.680Z,0
2018-12-06T01:32:30.607Z,0
2018-12-06T01:33:40.535Z,0
2018-12-06T01:34:50.473Z,0
2018-12-06T01:36:00.503Z,0
2018-12-06T01:37:10.431Z,0
2018-12-06T01:38:20.362Z,0
2018-12-06T01:39:30.294Z,0
2018-12-06T01:40:40.225Z,0
2018-12-06T01:41:50.252Z,0
2018-12-06T01:43:00.183Z,0
2018-12-06T01:44:10.115Z,0
2018-12-06T01:45:20.042Z,0
2018-12-06T01:46:29.969Z,0
2018-12-06T01:47:40.005Z,0
2018-12-06T01:48:49.938Z,0
2018-12-06T01:49:59.868Z,0
2018-12-06T01:51:09.794Z,0
2018-12-06T01:52:19.476Z,0
2018-12-06T01:53:29.454Z,0
2018-12-06T01:54:39.377Z,0
2018-12-06T01:55:49.306Z,0
2018-12-06T01:56:59.235Z,0
2018-12-06T01:58:09.165Z,0
2018-12-06T01:59:19.250Z,0
2018-12-06T02:00:29.188Z,0
2018-12-06T02:01:39.193Z,0
2018-12-06T02:02:49.125Z,0
2018-12-06T02:03:59.052Z,0
2018-12-06T02:05:09.034Z,0
2018-12-06T02:06:19.059Z,0
2018-12-06T02:07:28.993Z,0
2018-12-06T02:08:38.924Z,0
2018-12-06T02:09:48.863Z,0
2018-12-06T02:10:59.035Z,0
2018-12-06T02:12:08.979Z,0
2018-12-06T02:13:18.904Z,0
2018-12-06T02:14:28.837Z,0
2018-12-06T02:15:38.766Z,0
2018-12-06T02:16:48.845Z,0
2018-12-06T02:17:58.773Z,0
2018-12-06T02:19:08.700Z,0
2018-12-06T02:20:18.631Z,0
2018-12-06T02:21:28.328Z,0
2018-12-06T02:22:38.311Z,0
2018-12-06T02:23:48.241Z,0
2018-12-06T02:24:58.167Z,0
2018-12-06T02:26:08.095Z,0
2018-12-06T02:27:18.033Z,0
2018-12-06T02:28:28.013Z,0
2018-12-06T02:29:37.941Z,0
2018-12-06T02:30:47.632Z,0
2018-12-06T02:31:57.570Z,0
2018-12-06T02:33:07.520Z,0
2018-12-06T02:34:17.497Z,0
2018-12-06T02:35:27.176Z,0
2018-12-06T02:36:37.110Z,0
2018-12-06T02:37:47.064Z,0
2018-12-06T02:38:56.742Z,0
2018-12-06T02:40:06.786Z,0
2018-12-06T02:41:16.502Z,0
2018-12-06T02:42:26.444Z,0
2018-12-06T02:43:36.392Z,0
2018-12-06T02:44:46.328Z,0
2018-12-06T02:45:56.529Z,0
2018-12-06T02:47:06.469Z,0
2018-12-06T02:48:16.403Z,0
2018-12-06T02:49:26.079Z,0
2018-12-06T02:50:36.020Z,0
2018-12-06T02:51:46.009Z,0
2018-12-06T02:52:55.935Z,0
2018-12-06T02:54:05.875Z,0
2018-12-06T02:55:15.801Z,0
2018-12-06T02:56:25.729Z,0
2018-12-06T02:57:35.713Z,0
2018-12-06T02:58:45.397Z,0
2018-12-06T02:59:55.334Z,0
2018-12-06T03:01:05.273Z,0
2018-12-06T03:02:15.205Z,0
2018-12-06T03:03:25.238Z,0
2018-12-06T03:04:35.177Z,0
2018-12-06T03:05:44.855Z,0
2018-12-06T03:06:54.784Z,0
2018-12-06T03:08:04.727Z,0
2018-12-06T03:09:14.761Z,0
2018-12-06T03:10:24.698Z,0
2018-12-06T03:11:34.626Z,0
2018-12-06T03:12:44.585Z,0
2018-12-06T03:13:54.520Z,0
2018-12-06T03:15:04.509Z,0
2018-12-06T03:16:14.448Z,0
2018-12-06T03:17:24.394Z,0
2018-12-06T03:18:34.323Z,0
2018-12-06T03:19:44.247Z,0
2018-12-06T03:20:54.236Z,0
2018-12-06T03:22:04.171Z,0
2018-12-06T03:23:14.105Z,0
2018-12-06T03:24:24.053Z,0
2018-12-06T03:25:34.011Z,0
2018-12-06T03:26:44.036Z,0
2018-12-06T03:27:53.980Z,0
2018-12-06T03:29:04.852Z,0
2018-12-06T03:30:14.854Z,0
2018-12-06T03:31:24.823Z,0
2018-12-06T03:32:34.831Z,0
2018-12-06T03:33:44.802Z,0
2018-12-06T03:34:54.773Z,0
2018-12-06T03:36:04.709Z,0
2018-12-06T03:37:14.649Z,0
2018-12-06T03:38:24.588Z,0
2018-12-06T03:39:34.519Z,0
2018-12-06T03:40:44.204Z,0
2018-12-06T03:41:54.131Z,0
2018-12-06T03:43:04.073Z,0
2018-12-06T03:44:14.057Z,0
2018-12-06T03:45:23.990Z,0
2018-12-06T03:46:33.920Z,0
2018-12-06T03:47:43.908Z,0
2018-12-06T03:48:53.844Z,0
2018-12-06T03:50:03.847Z,0
2018-12-06T03:51:13.778Z,0
2018-12-06T03:52:23.718Z,0
2018-12-06T03:53:33.650Z,0
2018-12-06T03:54:43.590Z,0
2018-12-06T03:55:53.659Z,0
2018-12-06T03:57:03.591Z,0
2018-12-06T03:58:13.522Z,0
2018-12-06T03:59:23.204Z,0
2018-12-06T04:00:33.198Z,0
2018-12-06T04:01:43.196Z,0
2018-12-06T04:02:53.134Z,0
2018-12-06T04:04:03.191Z,0
2018-12-06T04:05:13.135Z,0
2018-12-06T04:06:23.076Z,0
2018-12-06T04:07:33.023Z,0
2018-12-06T04:08:42.951Z,0
2018-12-06T04:09:52.876Z,0
2018-12-06T04:11:02.902Z,0
2018-12-06T04:12:12.843Z,0
2018-12-06T04:13:22.769Z,0
2018-12-06T04:14:32.709Z,0
2018-12-06T04:15:42.661Z,0
2018-12-06T04:16:52.608Z,0
2018-12-06T04:18:02.542Z,0
2018-12-06T04:19:12.567Z,0
2018-12-06T04:20:22.523Z,0
2018-12-06T04:21:32.453Z,0
2018-12-06T04:22:42.376Z,0
2018-12-06T04:23:52.308Z,0
2018-12-06T04:25:02.345Z,0
2018-12-06T04:26:12.287Z,0
2018-12-06T04:27:22.223Z,0
2018-12-06T04:28:32.178Z,0
2018-12-06T04:29:42.135Z,0
2018-12-06T04:30:52.163Z,0
2018-12-06T04:32:02.097Z,0
2018-12-06T04:33:12.042Z,0
2018-12-06T04:34:22.010Z,0
2018-12-06T04:35:32.081Z,0
2018-12-06T04:36:42.170Z,0
2018-12-06T04:37:52.128Z,0
2018-12-06T04:39:02.063Z,0
2018-12-06T04:40:12.001Z,0
2018-12-06T04:41:21.936Z,0
2018-12-06T04:42:31.927Z,0
2018-12-06T04:43:41.878Z,0
2018-12-06T04:44:51.823Z,0
2018-12-06T04:46:01.761Z,0
2018-12-06T04:47:11.716Z,0
2018-12-06T04:48:28.966Z,0
2018-12-06T04:49:38.898Z,0
2018-12-06T04:50:48.834Z,0
2018-12-06T04:51:58.763Z,0
2018-12-06T04:53:08.699Z,0
2018-12-06T04:54:18.745Z,0
2018-12-06T04:55:28.684Z,0
2018-12-06T04:56:38.629Z,0
2018-12-06T04:57:48.567Z,0
2018-12-06T04:58:58.506Z,0
2018-12-06T05:00:08.568Z,0
2018-12-06T05:01:18.519Z,0
2018-12-06T05:02:28.453Z,0
2018-12-06T05:03:38.387Z,0
2018-12-06T05:04:48.319Z,0
2018-12-06T05:05:58.350Z,0
2018-12-06T05:07:08.277Z,0
2018-12-06T05:08:17.963Z,0
2018-12-06T05:09:27.894Z,0
2018-12-06T05:10:37.825Z,0
2018-12-06T05:11:47.928Z,0
2018-12-06T05:12:57.854Z,0
2018-12-06T05:14:07.779Z,0
2018-12-06T05:15:17.714Z,0
2018-12-06T05:16:27.394Z,0
2018-12-06T05:17:37.421Z,0
2018-12-06T05:18:47.349Z,0
2018-12-06T05:19:57.275Z,0
2018-12-06T05:21:07.201Z,0
2018-12-06T05:22:17.134Z,0
2018-12-06T05:23:27.169Z,0
2018-12-06T05:24:37.104Z,0
2018-12-06T05:25:47.035Z,0
2018-12-06T05:26:56.967Z,0
2018-12-06T05:28:06.945Z,0
2018-12-06T05:29:16.988Z,0
2018-12-06T05:30:26.914Z,0
2018-12-06T05:31:36.851Z,0
2018-12-06T05:32:46.783Z,0
2018-12-06T05:33:56.817Z,0
2018-12-06T05:35:06.747Z,0
2018-12-06T05:36:16.672Z,0
2018-12-06T05:37:26.603Z,0
2018-12-06T05:38:36.536Z,0
2018-12-06T05:39:46.471Z,0
2018-12-06T05:40:56.448Z,0
2018-12-06T05:42:06.385Z,0
2018-12-06T05:43:16.310Z,0
2018-12-06T05:44:26.235Z,0
2018-12-06T05:45:36.166Z,0
2018-12-06T05:46:46.205Z,0
2018-12-06T05:47:56.129Z,0
2018-12-06T05:49:06.054Z,0
2018-12-06T05:50:16.069Z,0
2018-12-06T05:51:25.746Z,0
2018-12-06T05:52:35.721Z,0
2018-12-06T05:53:45.647Z,0
2018-12-06T05:54:55.576Z,0
2018-12-06T05:56:05.498Z,0
2018-12-06T05:57:15.427Z,0
2018-12-06T05:58:25.458Z,0
2018-12-06T05:59:35.482Z,0
2018-12-06T06:00:45.408Z,0
2018-12-06T06:01:55.344Z,0
2018-12-06T06:03:05.267Z,0
2018-12-06T06:04:15.002Z,0
2018-12-06T06:05:24.931Z,0
2018-12-06T06:06:34.857Z,0
2018-12-06T06:07:44.788Z,0
2018-12-06T06:08:54.715Z,0
2018-12-06T06:10:04.750Z,0
2018-12-06T06:11:14.677Z,0
2018-12-06T06:12:24.610Z,0
2018-12-06T06:13:34.544Z,0
2018-12-06T06:14:44.473Z,0
2018-12-06T06:15:54.506Z,0
2018-12-06T06:17:04.511Z,0
2018-12-06T06:18:14.441Z,0
2018-12-06T06:19:24.370Z,0
2018-12-06T06:20:34.297Z,0
2018-12-06T06:21:44.281Z,0
2018-12-06T06:22:54.207Z,0
2018-12-06T06:24:04.138Z,0
2018-12-06T06:25:14.083Z,0
2018-12-06T06:26:24.010Z,0
2018-12-06T06:27:35.678Z,0
2018-12-06T06:28:45.616Z,0
2018-12-06T06:29:55.539Z,0
2018-12-06T06:31:05.463Z,0
2018-12-06T06:32:15.393Z,0
2018-12-06T06:33:25.476Z,0
2018-12-06T06:34:35.403Z,0
2018-12-06T06:35:45.333Z,0
2018-12-06T06:36:55.261Z,0
2018-12-06T06:38:05.197Z,0
2018-12-06T06:39:15.175Z,0
2018-12-06T06:40:25.111Z,0
2018-12-06T06:41:35.043Z,0
2018-12-06T06:42:44.977Z,0
2018-12-06T06:43:54.904Z,0
2018-12-06T06:45:04.935Z,0
2018-12-06T06:46:14.863Z,0
2018-12-06T06:47:24.791Z,0
2018-12-06T06:48:34.752Z,0
2018-12-06T06:49:44.685Z,0
2018-12-06T06:50:54.712Z,0
2018-12-06T06:52:04.653Z,0
2018-12-06T06:53:14.589Z,0
2018-12-06T06:54:24.523Z,0
2018-12-06T06:55:34.464Z,0
2018-12-06T06:56:44.396Z,0
2018-12-06T06:57:54.327Z,0
2018-12-06T06:59:05.816Z,0
2018-12-06T07:00:15.746Z,0
2018-12-06T07:01:25.675Z,0
2018-12-06T07:02:35.764Z,0
2018-12-06T07:03:45.695Z,0
2018-12-06T07:04:55.623Z,0
2018-12-06T07:06:05.550Z,0
2018-12-06T07:07:15.489Z,0
2018-12-06T07:08:25.521Z,0
2018-12-06T07:09:35.452Z,0
2018-12-06T07:10:45.376Z,0
2018-12-06T07:11:55.310Z,0
2018-12-06T07:13:05.249Z,0
2018-12-06T07:14:15.368Z,0
2018-12-06T07:15:25.301Z,0
2018-12-06T07:16:35.237Z,0
2018-12-06T07:17:45.180Z,0
2018-12-06T07:18:55.109Z,0
2018-12-06T07:20:05.185Z,0
2018-12-06T07:21:15.111Z,0
2018-12-06T07:22:25.039Z,0
2018-12-06T07:23:34.969Z,0
2018-12-06T07:24:44.898Z,0
2018-12-06T07:25:56.099Z,0
2018-12-06T07:27:06.032Z,0
2018-12-06T07:28:15.960Z,0
2018-12-06T07:29:25.891Z,0
2018-12-06T07:30:35.817Z,0
2018-12-06T07:31:45.796Z,0
2018-12-06T07:32:55.732Z,0
2018-12-06T07:34:05.667Z,0
2018-12-06T07:35:15.601Z,0
2018-12-06T07:36:25.557Z,0
2018-12-06T07:37:35.726Z,0
2018-12-06T07:38:45.658Z,0
2018-12-06T07:39:55.643Z,0
2018-12-06T07:41:05.571Z,0
2018-12-06T07:42:15.498Z,0
2018-12-06T07:43:25.551Z,0
2018-12-06T07:44:35.483Z,0
2018-12-06T07:45:45.409Z,0
2018-12-06T07:46:55.341Z,0
2018-12-06T07:48:05.274Z,0
2018-12-06T07:49:15.315Z,0
2018-12-06T07:50:25.247Z,0
2018-12-06T07:51:35.177Z,0
2018-12-06T07:52:45.109Z,0
2018-12-06T07:53:55.058Z,0
2018-12-06T07:55:05.144Z,0
2018-12-06T07:56:15.148Z,0
2018-12-06T07:57:25.078Z,0
2018-12-06T07:58:35.059Z,0
2018-12-06T07:59:44.992Z,0
2018-12-06T08:00:54.920Z,0
2018-12-06T08:02:04.848Z,0
2018-12-06T08:03:14.785Z,0
2018-12-06T08:04:24.714Z,0
2018-12-06T08:05:34.403Z,0
2018-12-06T08:06:44.483Z,0
2018-12-06T08:07:54.415Z,0
2018-12-06T08:09:04.343Z,0
2018-12-06T08:10:14.292Z,5
2018-12-06T08:11:24.221Z,5
2018-12-06T08:12:34.053Z,5
2018-12-06T08:13:43.981Z,5
2018-12-06T08:14:53.910Z,5
2018-12-06T08:16:03.842Z,5
2018-12-06T08:17:13.767Z,5
2018-12-06T08:18:23.745Z,5
2018-12-06T08:19:33.679Z,5
2018-12-06T08:21:15.439Z,5
2018-12-06T08:22:25.376Z,5
2018-12-06T08:23:35.455Z,5
2018-12-06T08:24:45.388Z,5
2018-12-06T08:25:55.315Z,5
2018-12-06T08:27:05.246Z,10
2018-12-06T08:28:15.188Z,10
2018-12-06T08:29:25.023Z,10
2018-12-06T08:30:34.955Z,10
2018-12-06T08:31:44.886Z,10
2018-12-06T08:32:54.564Z,10
2018-12-06T08:34:10.980Z,10
2018-12-06T08:35:20.916Z,10
2018-12-06T08:36:30.879Z,10
2018-12-06T08:37:40.820Z,10
2018-12-06T08:38:50.749Z,10
2018-12-06T08:40:00.679Z,10
2018-12-06T08:41:10.707Z,10
2018-12-06T08:42:20.986Z,10
2018-12-06T08:43:31.788Z,10
2018-12-06T08:44:41.810Z,10
2018-12-06T08:45:51.747Z,10
2018-12-06T08:47:01.830Z,10
2018-12-06T08:48:11.758Z,15
2018-12-06T08:49:21.683Z,15
2018-12-06T08:50:31.612Z,10
2018-12-06T08:51:41.622Z,10
2018-12-06T08:52:51.700Z,10
2018-12-06T08:54:01.640Z,10
2018-12-06T08:55:11.567Z,10
2018-12-06T08:56:21.494Z,15
2018-12-06T08:57:31.427Z,15
2018-12-06T08:58:41.614Z,15
2018-12-06T08:59:51.546Z,15
2018-12-06T09:01:01.559Z,15
2018-12-06T09:02:11.497Z,15
2018-12-06T09:03:21.427Z,15
2018-12-06T09:04:31.524Z,15
2018-12-06T09:05:41.249Z,15
2018-12-06T09:06:51.177Z,15
2018-12-06T09:08:01.105Z,15
2018-12-06T09:09:11.039Z,15
2018-12-06T09:10:21.077Z,15
2018-12-06T09:11:31.011Z,15
2018-12-06T09:12:40.962Z,15
2018-12-06T09:13:50.898Z,15
2018-12-06T09:15:00.580Z,15
2018-12-06T09:16:10.405Z,20
2018-12-06T09:17:20.333Z,20
2018-12-06T09:18:30.275Z,20
2018-12-06T09:19:40.296Z,20
2018-12-06T09:20:50.242Z,20
2018-12-06T09:22:00.279Z,20
2018-12-06T09:23:10.210Z,20
2018-12-06T09:24:20.146Z,20
2018-12-06T09:25:30.999Z,25
2018-12-06T09:26:40.961Z,25
2018-12-06T09:27:51.051Z,25
2018-12-06T09:29:00.982Z,25
2018-12-06T09:30:10.909Z,20
2018-12-06T09:31:20.845Z,20
2018-12-06T09:32:30.787Z,20
2018-12-06T09:33:40.822Z,20
2018-12-06T09:34:50.756Z,20
2018-12-06T09:36:00.690Z,20
2018-12-06T09:37:10.643Z,20
2018-12-06T09:38:20.351Z,20
2018-12-06T09:39:30.339Z,20
2018-12-06T09:40:40.270Z,20
2018-12-06T09:41:50.203Z,20
2018-12-06T09:43:00.133Z,20
2018-12-06T09:44:10.063Z,20
2018-12-06T09:45:20.053Z,25
2018-12-06T09:46:30.088Z,25
2018-12-06T09:47:40.013Z,20
2018-12-06T09:48:49.948Z,20
2018-12-06T09:49:59.876Z,25
2018-12-06T09:51:10.034Z,25
2018-12-06T09:52:19.972Z,25
2018-12-06T09:53:29.904Z,25
2018-12-06T09:54:39.838Z,25
2018-12-06T09:55:49.768Z,20
2018-12-06T09:56:59.850Z,20
2018-12-06T09:58:09.784Z,25
2018-12-06T09:59:19.717Z,25
2018-12-06T10:00:29.658Z,25
2018-12-06T10:01:39.585Z,25
2018-12-06T10:02:49.663Z,25
2018-12-06T10:03:59.601Z,25
2018-12-06T10:05:09.538Z,25
2018-12-06T10:06:19.470Z,25
2018-12-06T10:07:29.407Z,25
2018-12-06T10:08:39.489Z,25
2018-12-06T10:09:49.420Z,25
2018-12-06T10:10:59.346Z,25
2018-12-06T10:12:09.274Z,25
2018-12-06T10:13:19.204Z,25
2018-12-06T10:14:29.382Z,25
2018-12-06T10:15:39.315Z,25
2018-12-06T10:16:49.250Z,25
2018-12-06T10:17:59.185Z,25
2018-12-06T10:19:09.121Z,25
2018-12-06T10:20:19.203Z,25
2018-12-06T10:21:29.135Z,25
2018-12-06T10:22:39.142Z,25
2018-12-06T10:23:49.148Z,25
2018-12-06T10:24:59.081Z,25
2018-12-06T10:26:09.168Z,25
2018-12-06T10:27:19.095Z,25
2018-12-06T10:28:29.034Z,25
2018-12-06T10:29:38.966Z,25
2018-12-06T10:30:48.900Z,25
2018-12-06T10:31:59.004Z,25
2018-12-06T10:33:08.938Z,25
2018-12-06T10:34:18.869Z,30
2018-12-06T10:35:28.803Z,30
2018-12-06T10:36:38.732Z,30
2018-12-06T10:37:48.819Z,25
2018-12-06T10:38:58.512Z,25
2018-12-06T10:40:08.449Z,25
2018-12-06T10:41:18.389Z,30
2018-12-06T10:42:28.318Z,25
2018-12-06T10:43:38.251Z,25
2018-12-06T10:44:48.187Z,25
2018-12-06T10:45:58.114Z,25
2018-12-06T10:47:07.857Z,25
2018-12-06T10:48:17.785Z,20
2018-12-06T10:49:27.820Z,20
2018-12-06T10:50:37.748Z,20
2018-12-06T10:51:47.680Z,20
2018-12-06T10:52:57.606Z,20
2018-12-06T10:54:07.532Z,20
2018-12-06T10:55:17.546Z,20
2018-12-06T10:56:27.475Z,20
2018-12-06T10:57:37.403Z,20
2018-12-06T10:58:47.330Z,20
2018-12-06T10:59:57.255Z,20
2018-12-06T11:01:07.435Z,20
2018-12-06T11:02:17.369Z,25
2018-12-06T11:03:27.298Z,25
2018-12-06T11:04:37.243Z,25
2018-12-06T11:05:47.170Z,25
2018-12-06T11:06:57.298Z,25
2018-12-06T11:08:07.242Z,25
2018-12-06T11:09:17.173Z,25
2018-12-06T11:10:27.119Z,25
2018-12-06T11:11:37.055Z,25
2018-12-06T11:12:47.234Z,25
2018-12-06T11:13:57.182Z,30
2018-12-06T11:15:07.120Z,30
2018-12-06T11:16:17.049Z,30
2018-12-06T11:17:26.984Z,30
2018-12-06T11:18:36.926Z,30
2018-12-06T11:19:46.854Z,30
2018-12-06T11:20:56.531Z,30
2018-12-06T11:22:06.460Z,30
2018-12-06T11:23:16.403Z,30
2018-12-06T11:24:26.350Z,30
2018-12-06T11:25:36.278Z,35
2018-12-06T11:26:45.966Z,35
2018-12-06T11:27:55.903Z,35
2018-12-06T11:29:05.836Z,35
2018-12-06T11:30:15.869Z,35
2018-12-06T11:31:25.800Z,35
2018-12-06T11:32:35.731Z,35
2018-12-06T11:33:45.662Z,35
2018-12-06T11:34:55.590Z,35
2018-12-06T11:36:05.522Z,30
2018-12-06T11:37:15.450Z,30
2018-12-06T11:38:25.382Z,30
2018-12-06T11:39:35.314Z,30
2018-12-06T11:40:45.240Z,30
2018-12-06T11:41:55.167Z,30
2018-12-06T11:43:05.094Z,30
2018-12-06T11:44:15.021Z,25
2018-12-06T11:45:24.959Z,25
2018-12-06T11:46:34.886Z,25
2018-12-06T11:47:44.915Z,25
2018-12-06T11:48:54.858Z,25
2018-12-06T11:50:04.787Z,25
2018-12-06T11:51:14.718Z,25
2018-12-06T11:52:24.664Z,25
2018-12-06T11:53:34.593Z,25
2018-12-06T11:54:44.525Z,25
2018-12-06T11:55:54.534Z,30
2018-12-06T11:57:04.475Z,30
2018-12-06T11:58:20.952Z,30
2018-12-06T11:59:30.987Z,30
2018-12-06T12:00:40.713Z,25
2018-12-06T12:01:50.640Z,25
2018-12-06T12:03:00.568Z,25
2018-12-06T12:04:10.494Z,25
2018-12-06T12:05:20.422Z,25
2018-12-06T12:06:30.353Z,25
2018-12-06T12:07:40.299Z,25
2018-12-06T12:08:50.228Z,30
2018-12-06T12:10:00.168Z,30
2018-12-06T12:11:10.211Z,30
2018-12-06T12:12:20.141Z,30
2018-12-06T12:13:30.071Z,30
2018-12-06T12:14:40.003Z,30
2018-12-06T12:15:49.948Z,30
2018-12-06T12:16:59.978Z,30
2018-12-06T12:18:09.921Z,30
2018-12-06T12:19:19.849Z,30
2018-12-06T12:20:29.786Z,30
2018-12-06T12:21:39.737Z,30
2018-12-06T12:22:49.563Z,30
2018-12-06T12:23:59.493Z,30
2018-12-06T12:25:09.427Z,30
2018-12-06T12:26:19.365Z,25
2018-12-06T12:27:29.303Z,25
2018-12-06T12:28:39.390Z,25
2018-12-06T12:29:49.340Z,25
2018-12-06T12:30:59.272Z,25
2018-12-06T12:32:09.203Z,25
2018-12-06T12:33:19.134Z,25
2018-12-06T12:34:29.067Z,25
2018-12-06T12:35:39.057Z,25
2018-12-06T12:36:48.997Z,20
2018-12-06T12:37:58.936Z,20
2018-12-06T12:39:08.618Z,20
2018-12-06T12:40:18.809Z,20
2018-12-06T12:41:28.741Z,20
2018-12-06T12:42:38.677Z,20
2018-12-06T12:43:48.603Z,20
2018-12-06T12:44:58.545Z,20
2018-12-06T12:46:08.528Z,20
2018-12-06T12:47:18.469Z,20
2018-12-06T12:48:28.406Z,20
2018-12-06T12:49:38.338Z,15
2018-12-06T12:50:48.270Z,20
2018-12-06T12:51:58.196Z,20
2018-12-06T12:53:08.133Z,20
2018-12-06T12:54:18.065Z,15
2018-12-06T12:55:27.997Z,15
2018-12-06T12:56:37.927Z,15
2018-12-06T12:57:47.957Z,15
2018-12-06T12:58:57.896Z,15
2018-12-06T13:00:07.840Z,15
2018-12-06T13:01:17.768Z,15
2018-12-06T13:02:27.700Z,15
2018-12-06T13:03:37.730Z,10
2018-12-06T13:04:47.660Z,10
2018-12-06T13:05:57.595Z,10
2018-12-06T13:07:07.537Z,10
2018-12-06T13:08:17.511Z,10
2018-12-06T13:09:27.662Z,10
2018-12-06T13:10:37.595Z,10
2018-12-06T13:11:47.547Z,5
2018-12-06T13:12:57.526Z,5
2018-12-06T13:14:07.459Z,5
2018-12-06T13:15:17.522Z,5
2018-12-06T13:16:27.459Z,5
2018-12-06T13:17:37.386Z,5
2018-12-06T13:18:47.316Z,5
2018-12-06T13:19:57.256Z,5
2018-12-06T13:21:07.343Z,5
2018-12-06T13:22:17.034Z,5
2018-12-06T13:23:26.970Z,5
2018-12-06T13:24:36.972Z,5
2018-12-06T13:25:46.901Z,5
2018-12-06T13:26:56.960Z,5
2018-12-06T13:28:06.890Z,5
2018-12-06T13:29:16.824Z,5
2018-12-06T13:30:26.763Z,5
2018-12-06T13:31:36.688Z,5
2018-12-06T13:32:46.717Z,5
2018-12-06T13:33:56.644Z,5
2018-12-06T13:35:06.576Z,5
2018-12-06T13:36:16.513Z,5
2018-12-06T13:37:26.441Z,5
2018-12-06T13:38:36.369Z,5
2018-12-06T13:39:46.302Z,5
2018-12-06T13:40:56.234Z,5
2018-12-06T13:42:06.166Z,5
2018-12-06T13:43:15.853Z,5
2018-12-06T13:44:25.933Z,5
2018-12-06T13:45:35.871Z,5
2018-12-06T13:46:45.808Z,5
2018-12-06T13:47:55.744Z,0
2018-12-06T13:49:05.672Z,0
2018-12-06T13:50:15.708Z,0
2018-12-06T13:51:25.636Z,0
2018-12-06T13:52:35.569Z,0
2018-12-06T13:53:45.498Z,0
2018-12-06T13:54:55.434Z,0
2018-12-06T13:56:05.365Z,0
2018-12-06T13:57:15.349Z,0
2018-12-06T13:58:25.283Z,0
2018-12-06T13:59:35.216Z,0
2018-12-06T14:00:46.208Z,0
2018-12-06T14:01:56.300Z,0
2018-12-06T14:03:06.241Z,0
2018-12-06T14:04:16.178Z,0
2018-12-06T14:05:26.111Z,0
2018-12-06T14:06:35.790Z,0
2018-12-06T14:07:45.872Z,0
2018-12-06T14:08:55.809Z,0
2018-12-06T14:10:05.497Z,0
2018-12-06T14:11:15.461Z,0
2018-12-06T14:12:25.402Z,0
2018-12-06T14:13:35.354Z,0
2018-12-06T14:14:45.283Z,0
2018-12-06T14:15:55.213Z,0
2018-12-06T14:17:04.899Z,0
2018-12-06T14:18:14.831Z,0
2018-12-06T14:19:24.759Z,0
2018-12-06T14:20:34.686Z,0
2018-12-06T14:21:44.616Z,0
2018-12-06T14:22:54.548Z,0
2018-12-06T14:24:04.238Z,0
2018-12-06T14:25:14.269Z,0
2018-12-06T14:26:24.201Z,0
2018-12-06T14:27:34.147Z,0
2018-12-06T14:28:44.075Z,0
2018-12-06T14:29:54.009Z,0
2018-12-06T14:31:03.939Z,0
2018-12-06T14:32:13.870Z,0
2018-12-06T14:33:23.807Z,0
2018-12-06T14:34:33.765Z,0
2018-12-06T14:35:43.777Z,0
2018-12-06T14:37:06.634Z,0
2018-12-06T14:38:16.563Z,0
2018-12-06T14:39:26.489Z,0
2018-12-06T14:40:36.424Z,0
2018-12-06T14:41:46.502Z,0
2018-12-06T14:42:56.429Z,0
2018-12-06T14:44:06.361Z,0
2018-12-06T14:45:16.401Z,0
2018-12-06T14:46:26.341Z,0
2018-12-06T14:47:36.369Z,0
2018-12-06T14:48:46.299Z,0
2018-12-06T14:49:56.237Z,0
2018-12-06T14:51:06.181Z,0
2018-12-06T14:52:16.178Z,0
2018-12-06T14:53:26.235Z,0
2018-12-06T14:54:36.167Z,0
2018-12-06T14:55:46.100Z,0
2018-12-06T14:56:56.032Z,0
2018-12-06T14:58:05.976Z,0
2018-12-06T14:59:16.020Z,0
2018-12-06T15:00:25.971Z,0
2018-12-06T15:01:35.911Z,0
2018-12-06T15:02:45.842Z,0
2018-12-06T15:03:55.769Z,0
2018-12-06T15:05:05.900Z,0
2018-12-06T15:06:15.834Z,0
2018-12-06T15:07:25.784Z,0
2018-12-06T15:08:35.724Z,0
2018-12-06T15:09:45.652Z,0
2018-12-06T15:10:55.725Z,0
2018-12-06T15:12:05.673Z,0
2018-12-06T15:13:15.620Z,0
2018-12-06T15:14:25.553Z,0
2018-12-06T15:15:35.483Z,0
2018-12-06T15:16:45.513Z,0
2018-12-06T15:17:55.446Z,0
2018-12-06T15:19:05.374Z,0
2018-12-06T15:20:15.310Z,0
2018-12-06T15:21:25.240Z,0
2018-12-06T15:22:35.333Z,0
2018-12-06T15:23:45.262Z,0
2018-12-06T15:24:54.937Z,0
2018-12-06T15:26:04.884Z,0
2018-12-06T15:27:14.820Z,0
2018-12-06T15:28:24.912Z,0
2018-12-06T15:29:34.839Z,0
2018-12-06T15:30:44.766Z,0
2018-12-06T15:31:54.708Z,0
2018-12-06T15:33:04.706Z,0
2018-12-06T15:34:14.702Z,0
2018-12-06T15:35:25.412Z,0
2018-12-06T15:36:35.344Z,0
2018-12-06T15:37:45.021Z,0
2018-12-06T15:38:54.954Z,0
2018-12-06T15:40:05.097Z,0
2018-12-06T15:41:15.030Z,0
2018-12-06T15:42:24.960Z,0
2018-12-06T15:43:34.893Z,0
2018-12-06T15:44:44.821Z,0
2018-12-06T15:45:54.802Z,0
2018-12-06T15:47:04.731Z,0
2018-12-06T15:48:14.663Z,0
2018-12-06T15:49:24.592Z,0
2018-12-06T15:50:34.532Z,0
2018-12-06T15:51:44.514Z,0
2018-12-06T15:52:54.451Z,0
2018-12-06T15:54:04.383Z,0
2018-12-06T15:55:14.316Z,0
2018-12-06T15:56:24.246Z,0
2018-12-06T15:57:34.274Z,0
2018-12-06T15:58:44.208Z,0
2018-12-06T15:59:54.154Z,0
2018-12-06T16:01:04.089Z,0
2018-12-06T16:02:14.028Z,0
2018-12-06T16:03:24.088Z,0
2018-12-06T16:04:34.020Z,0
2018-12-06T16:05:43.949Z,0
2018-12-06T16:06:53.941Z,0
2018-12-06T16:08:03.884Z,0
2018-12-06T16:09:13.867Z,0
2018-12-06T16:10:23.802Z,0
2018-12-06T16:11:48.371Z,0
2018-12-06T16:12:58.313Z,0
2018-12-06T16:14:08.290Z,0
2018-12-06T16:15:18.218Z,0
2018-12-06T16:16:28.159Z,0
2018-12-06T16:17:38.094Z,0
2018-12-06T16:18:48.021Z,0
2018-12-06T16:19:57.999Z,0
2018-12-06T16:21:07.943Z,0
2018-12-06T16:22:17.869Z,0
2018-12-06T16:23:27.801Z,0
2018-12-06T16:24:37.737Z,0
2018-12-06T16:25:47.770Z,0
2018-12-06T16:26:57.702Z,0
2018-12-06T16:28:07.641Z,0
2018-12-06T16:29:17.590Z,0
2018-12-06T16:30:27.530Z,0
2018-12-06T16:31:37.562Z,0
2018-12-06T16:32:47.241Z,0
2018-12-06T16:33:57.171Z,0
2018-12-06T16:35:07.099Z,0
2018-12-06T16:36:17.035Z,0
2018-12-06T16:37:27.064Z,0
2018-12-06T16:38:37.005Z,0
2018-12-06T16:39:46.935Z,0
2018-12-06T16:40:56.859Z,0
2018-12-06T16:42:06.533Z,0
2018-12-06T16:43:16.560Z,0
2018-12-06T16:44:26.487Z,0
2018-12-06T16:45:36.417Z,0
2018-12-06T16:46:46.353Z,0
2018-12-06T16:47:57.845Z,0
2018-12-06T16:49:14.776Z,0
2018-12-06T16:50:24.799Z,0
2018-12-06T16:51:34.726Z,0
2018-12-06T16:52:44.657Z,0
2018-12-06T16:53:54.594Z,0
2018-12-06T16:55:04.629Z,0
2018-12-06T16:56:14.560Z,0
2018-12-06T16:57:24.490Z,0
2018-12-06T16:58:34.418Z,0
2018-12-06T16:59:44.350Z,0
2018-12-06T17:00:54.402Z,0
2018-12-06T17:02:04.337Z,0
2018-12-06T17:03:14.269Z,0
2018-12-06T17:04:24.266Z,0
2018-12-06T17:05:34.198Z,0